Time;durP1;ratioP1;P1;durP2;ratioP2;P2;SDS_P1;SDS_P2;PMS_P1;PMS_P2;Temp;Humidity;BMP_temperature;BMP_pressure;BME280_temperature;BME280_humidity;BME280_pressure;Samples;Min_cycle;Max_cycle;Signal;HPM_P1;HPM_P2
2022/07/22 00:01:02;;;;;;;9.78;5.78;;;;;;;17.88;85.94;100069.22;1793707;78;20884;-86
2022/07/22 00:03:29;;;;;;;7.35;5.35;;;;;;;17.88;86.08;100065.24;1816858;78;21234;-86
2022/07/22 00:05:57;;;;;;;5.75;5.12;;;;;;;17.87;86.23;100065.71;1797846;77;20952;-88
2022/07/22 00:08:24;;;;;;;5.87;4.95;;;;;;;17.87;86.33;100072.84;1762509;77;20964;-88
2022/07/22 00:10:51;;;;;;;5.20;4.70;;;;;;;17.86;86.52;100071.19;1719718;83;20880;-89
2022/07/22 00:13:18;;;;;;;4.58;3.95;;;;;;;17.86;86.69;100067.22;1750684;82;20849;-88
2022/07/22 00:15:46;;;;;;;4.72;4.33;;;;;;;17.86;86.86;100067.22;1750814;82;20988;-88
2022/07/22 00:18:14;;;;;;;6.22;4.00;;;;;;;17.86;86.97;100061.41;1750644;81;21331;-89
2022/07/22 00:20:42;;;;;;;4.50;3.80;;;;;;;17.86;87.04;100060.08;1750797;82;21362;-88
2022/07/22 00:23:09;;;;;;;5.30;4.12;;;;;;;17.86;87.10;100060.58;1750687;82;20893;-89
2022/07/22 00:25:36;;;;;;;5.00;3.60;;;;;;;17.86;87.16;100064.56;1750808;81;20987;-89
2022/07/22 00:28:03;;;;;;;7.83;4.33;;;;;;;17.84;87.12;100068.68;1750652;82;21289;-89
2022/07/22 00:30:30;;;;;;;3.52;3.22;;;;;;;17.81;87.21;100073.80;1750575;82;20889;-89
2022/07/22 00:32:58;;;;;;;4.15;3.67;;;;;;;17.80;87.36;100069.44;1750944;82;20889;-88
2022/07/22 00:35:25;;;;;;;6.28;3.60;;;;;;;17.81;87.55;100078.25;1750732;82;20940;-86
2022/07/22 00:37:53;;;;;;;4.40;4.03;;;;;;;17.80;87.72;100080.05;1750778;82;20968;-89
2022/07/22 00:40:19;;;;;;;4.95;3.60;;;;;;;17.81;87.82;100075.13;1750828;82;21223;-89
2022/07/22 00:42:47;;;;;;;5.75;3.90;;;;;;;17.85;87.95;100084.09;1750620;82;20980;-89
2022/07/22 00:45:13;;;;;;;3.92;3.50;;;;;;;17.86;87.95;100077.83;1750892;82;20863;-90
2022/07/22 00:47:40;;;;;;;4.40;3.65;;;;;;;17.89;88.02;100086.79;1750757;82;20916;-89
2022/07/22 00:50:07;;;;;;;4.20;3.77;;;;;;;17.90;88.01;100089.30;1750747;82;20991;-88
2022/07/22 00:52:34;;;;;;;5.00;4.03;;;;;;;17.93;88.04;100089.48;1750606;82;21096;-89
2022/07/22 00:55:02;;;;;;;4.28;3.87;;;;;;;17.95;87.98;100090.17;1748991;82;21430;-89
2022/07/22 00:57:28;;;;;;;4.47;4.08;;;;;;;17.96;87.93;100092.67;1728505;83;20926;-87
2022/07/22 00:59:55;;;;;;;6.60;3.87;;;;;;;17.97;87.88;100083.72;1733066;83;20913;-89
2022/07/22 01:02:22;;;;;;;4.08;3.67;;;;;;;17.99;87.89;100090.20;1727393;83;21393;-90
2022/07/22 01:04:48;;;;;;;4.45;3.55;;;;;;;18.00;87.82;100092.69;1698153;84;21190;-86
2022/07/22 01:07:15;;;;;;;7.28;3.80;;;;;;;18.01;87.76;100093.05;1731281;83;21454;-90
2022/07/22 01:09:45;;;;;;;7.37;4.08;;;;;;;18.03;87.63;100100.86;1727206;82;20852;-90
2022/07/22 01:12:12;;;;;;;7.50;3.90;;;;;;;18.02;87.55;100095.20;1698318;83;20917;-89
2022/07/22 01:14:38;;;;;;;9.35;4.08;;;;;;;18.04;87.51;100096.38;1731433;83;20901;-90
2022/07/22 01:17:05;;;;;;;8.08;4.50;;;;;;;18.05;87.52;100087.41;1727361;83;21746;-90
2022/07/22 01:19:32;;;;;;;3.42;3.12;;;;;;;18.05;87.35;100090.07;1727287;83;21420;-90
2022/07/22 01:21:58;;;;;;;7.35;3.80;;;;;;;18.05;87.00;100096.70;1731547;83;20983;-90
2022/07/22 01:24:25;;;;;;;7.22;3.87;;;;;;;18.02;87.12;100089.89;1697358;83;21010;-90
2022/07/22 01:26:52;;;;;;;4.53;3.50;;;;;;;17.99;87.10;100087.05;1698982;83;20834;-90
2022/07/22 01:29:20;;;;;;;3.80;3.40;;;;;;;17.98;87.12;100094.66;1733234;83;21724;-90
2022/07/22 01:31:47;;;;;;;3.90;3.60;;;;;;;17.97;87.05;100094.83;1728664;83;20970;-90
2022/07/22 01:34:13;;;;;;;8.20;4.15;;;;;;;17.95;86.95;100090.17;1698863;83;20877;-89
2022/07/22 01:36:42;;;;;;;5.12;3.75;;;;;;;17.94;87.03;100096.44;1731578;83;20873;-89
2022/07/22 01:39:08;;;;;;;3.72;3.42;;;;;;;17.92;87.04;100087.80;1727509;82;20912;-89
2022/07/22 01:41:36;;;;;;;8.05;3.83;;;;;;;17.90;86.88;100090.63;1731679;83;21111;-89
2022/07/22 01:44:03;;;;;;;7.65;3.80;;;;;;;17.87;86.84;100100.70;1727434;83;20911;-89
2022/07/22 01:46:29;;;;;;;3.83;3.52;;;;;;;17.86;86.97;100103.02;1727165;83;21570;-90
2022/07/22 01:48:57;;;;;;;5.92;3.30;;;;;;;17.85;86.98;100102.67;1698175;84;20937;-89
2022/07/22 01:51:23;;;;;;;7.00;3.22;;;;;;;17.83;87.02;100101.98;1668675;84;20889;-87
2022/07/22 01:53:50;;;;;;;5.58;3.72;;;;;;;17.82;87.07;100102.48;1733210;83;21354;-87
2022/07/22 01:56:17;;;;;;;7.40;3.62;;;;;;;17.80;87.05;100106.57;1728580;83;20975;-88
2022/07/22 01:58:45;;;;;;;4.30;3.90;;;;;;;17.80;87.04;100104.42;1697946;83;20953;-89
2022/07/22 02:01:13;;;;;;;4.85;3.92;;;;;;;17.79;87.16;100106.74;1731480;83;21520;-90
2022/07/22 02:03:40;;;;;;;4.15;3.20;;;;;;;17.79;87.11;100109.39;1727579;83;20844;-89
2022/07/22 02:06:07;;;;;;;7.28;3.65;;;;;;;17.78;87.09;100109.86;1698673;84;21215;-89
2022/07/22 02:08:33;;;;;;;3.90;3.55;;;;;;;17.76;87.06;100103.91;1731723;82;20900;-89
2022/07/22 02:11:03;;;;;;;3.77;3.15;;;;;;;17.74;87.06;100107.20;1758018;81;20882;-88
2022/07/22 02:13:31;;;;;;;7.58;4.00;;;;;;;17.71;87.05;100098.70;1759801;81;20987;-88
2022/07/22 02:15:58;;;;;;;6.55;3.40;;;;;;;17.68;87.17;100101.16;1758415;81;20927;-89
2022/07/22 02:18:26;;;;;;;4.25;3.70;;;;;;;17.67;87.12;100106.61;1757869;81;21241;-89
2022/07/22 02:20:53;;;;;;;5.42;3.85;;;;;;;17.67;87.19;100111.41;1756710;81;20936;-90
2022/07/22 02:23:20;;;;;;;4.05;3.67;;;;;;;17.67;87.22;100108.77;1756886;81;20857;-89
2022/07/22 02:25:47;;;;;;;3.75;3.42;;;;;;;17.66;87.24;100107.11;1699224;83;21486;-89
2022/07/22 02:28:14;;;;;;;4.72;3.45;;;;;;;17.66;87.28;100108.44;1697173;84;20938;-88
2022/07/22 02:30:42;;;;;;;9.83;4.97;;;;;;;17.67;87.25;100110.09;1726406;83;21270;-90
2022/07/22 02:33:09;;;;;;;5.55;4.10;;;;;;;17.69;87.29;100105.47;1697153;84;20973;-90
2022/07/22 02:35:36;;;;;;;6.10;4.55;;;;;;;17.71;87.11;100109.30;1756945;81;21008;-88
2022/07/22 02:38:04;;;;;;;6.22;4.90;;;;;;;17.72;87.03;100114.94;1756857;81;20865;-89
2022/07/22 02:40:31;;;;;;;6.78;4.03;;;;;;;17.73;86.94;100116.13;1725502;83;20897;-89
2022/07/22 02:42:58;;;;;;;8.03;5.10;;;;;;;17.76;86.88;100120.29;1756842;81;21145;-89
2022/07/22 02:45:27;;;;;;;5.62;4.45;;;;;;;17.78;86.89;100115.67;1756967;81;21456;-88
2022/07/22 02:47:55;;;;;;;3.83;3.52;;;;;;;17.78;86.83;100114.34;1757811;81;20904;-86
2022/07/22 02:50:22;;;;;;;7.20;4.55;;;;;;;17.79;86.82;100114.20;1727965;83;20986;-89
2022/07/22 02:52:49;;;;;;;7.42;3.62;;;;;;;17.81;86.85;100118.89;1697431;84;20957;-91
2022/07/22 02:55:17;;;;;;;9.13;4.70;;;;;;;17.83;86.68;100121.41;1726460;83;21787;-90
2022/07/22 02:57:44;;;;;;;3.70;3.40;;;;;;;17.83;86.75;100120.08;1697332;84;20890;-90
2022/07/22 03:00:12;;;;;;;5.50;3.17;;;;;;;17.84;86.63;100123.56;1726419;83;20978;-89
2022/07/22 03:02:41;;;;;;;5.75;3.98;;;;;;;17.86;86.60;100133.53;1697745;84;20919;-89
2022/07/22 03:05:08;;;;;;;6.95;4.25;;;;;;;17.85;86.66;100134.00;1728759;83;20917;-89
2022/07/22 03:07:38;;;;;;;4.87;3.80;;;;;;;17.86;86.57;100133.03;1699971;84;21226;-89
2022/07/22 03:10:05;;;;;;;6.17;4.10;;;;;;;17.88;86.52;100133.72;1729003;81;20855;-89
2022/07/22 03:12:33;;;;;;;6.37;3.62;;;;;;;17.88;86.54;100131.06;1700299;82;20906;-90
2022/07/22 03:14:59;;;;;;;4.50;4.08;;;;;;;17.91;86.53;100129.42;1729569;81;21060;-90
2022/07/22 03:17:28;;;;;;;4.78;3.30;;;;;;;17.92;86.50;100128.45;1729996;80;20948;-89
2022/07/22 03:19:54;;;;;;;5.00;3.92;;;;;;;17.96;86.56;100135.59;1734084;81;21082;-90
2022/07/22 03:22:21;;;;;;;6.55;4.12;;;;;;;17.98;86.37;100138.94;1728682;83;20920;-90
2022/07/22 03:24:48;;;;;;;4.55;4.15;;;;;;;18.01;86.28;100136.82;1731856;83;21070;-89
2022/07/22 03:27:14;;;;;;;5.00;4.08;;;;;;;18.05;86.30;100141.31;1727368;83;20999;-90
2022/07/22 03:29:41;;;;;;;5.90;4.10;;;;;;;18.09;86.18;100136.05;1698658;84;20913;-91
2022/07/22 03:32:08;;;;;;;4.22;3.85;;;;;;;18.09;86.09;100138.70;1698542;83;22527;-89
2022/07/22 03:34:40;;;;;;;4.83;3.60;;;;;;;18.10;86.13;100148.84;1727179;83;20874;-89
2022/07/22 03:37:09;;;;;;;6.22;3.80;;;;;;;18.11;86.17;100142.04;1723388;82;21005;-90
2022/07/22 03:39:36;;;;;;;8.13;4.80;;;;;;;18.13;86.11;100148.53;1723109;83;20988;-90
2022/07/22 03:42:03;;;;;;;7.50;4.80;;;;;;;18.14;86.10;100147.53;1764189;81;20869;-88
2022/07/22 03:44:31;;;;;;;6.47;4.28;;;;;;;18.15;86.09;100150.54;1735209;81;21168;-89
2022/07/22 03:46:58;;;;;;;7.00;4.80;;;;;;;18.16;86.03;100146.88;1764882;81;20935;-90
2022/07/22 03:49:25;;;;;;;5.33;4.62;;;;;;;18.17;86.07;100139.28;1763896;81;20991;-90
2022/07/22 03:51:52;;;;;;;10.18;4.87;;;;;;;18.19;86.36;100146.09;1763943;81;21456;-91
2022/07/22 03:54:19;;;;;;;5.33;4.83;;;;;;;18.23;86.36;100143.98;1733644;81;20932;-90
2022/07/22 03:56:46;;;;;;;7.47;5.15;;;;;;;18.27;86.21;100151.95;1763859;81;21138;-90
2022/07/22 03:59:12;;;;;;;6.03;4.85;;;;;;;18.30;86.04;100149.52;1763917;81;20885;-90
2022/07/22 04:01:39;;;;;;;6.08;4.90;;;;;;;18.33;85.87;100147.86;1763847;81;21410;-89
2022/07/22 04:04:07;;;;;;;11.00;4.85;;;;;;;18.35;85.70;100152.03;1763875;81;20968;-90
2022/07/22 04:06:36;;;;;;;6.08;4.67;;;;;;;18.37;85.64;100157.19;1763363;80;20967;-90
2022/07/22 04:09:07;;;;;;;4.72;3.98;;;;;;;18.40;85.67;100155.55;1763118;81;21270;-88
2022/07/22 04:11:35;;;;;;;5.58;4.75;;;;;;;18.41;85.58;100159.39;1734654;82;20979;-90
2022/07/22 04:14:01;;;;;;;5.40;4.87;;;;;;;18.40;85.41;100152.89;1767108;81;21316;-90
2022/07/22 04:16:30;;;;;;;6.00;5.17;;;;;;;18.45;85.39;100166.53;1766976;81;20958;-90
2022/07/22 04:19:02;;;;;;;5.83;5.33;;;;;;;18.48;85.21;100164.09;1766477;81;20812;-89
2022/07/22 04:21:46;;;;;;;8.60;5.15;;;;;;;18.48;85.10;100159.60;1765996;81;21439;-89
2022/07/22 04:24:13;;;;;;;6.17;4.90;;;;;;;18.50;85.04;100162.94;1766902;81;20867;-89
2022/07/22 04:26:41;;;;;;;7.75;5.12;;;;;;;18.51;84.98;100160.61;1766858;81;20835;-91
2022/07/22 04:29:07;;;;;;;5.00;4.50;;;;;;;18.54;85.03;100160.78;1767510;81;20926;-89
2022/07/22 04:31:35;;;;;;;6.90;4.75;;;;;;;18.57;85.00;100171.12;1767304;81;20993;-90
2022/07/22 04:34:03;;;;;;;6.65;5.35;;;;;;;18.58;85.02;100173.59;1767010;81;21166;-90
2022/07/22 04:36:30;;;;;;;6.05;4.90;;;;;;;18.61;84.78;100172.48;1768169;81;20863;-89
2022/07/22 04:38:57;;;;;;;6.12;5.10;;;;;;;18.63;84.53;100183.28;1768329;81;20949;-88
2022/07/22 04:41:25;;;;;;;6.17;5.10;;;;;;;18.67;84.46;100177.15;1767980;81;20989;-89
2022/07/22 04:43:52;;;;;;;5.58;5.00;;;;;;;18.71;84.36;100185.16;1767184;81;21385;-88
2022/07/22 04:46:21;;;;;;;7.72;4.87;;;;;;;18.77;84.26;100182.38;1767255;81;21077;-89
2022/07/22 04:48:48;;;;;;;10.28;6.53;;;;;;;18.80;84.26;100182.91;1766977;81;20943;-89
2022/07/22 04:51:15;;;;;;;5.65;5.22;;;;;;;18.87;84.13;100195.08;1766939;81;20922;-88
2022/07/22 04:53:43;;;;;;;6.60;6.10;;;;;;;18.93;83.92;100193.13;1766902;81;20871;-89
2022/07/22 04:56:10;;;;;;;6.33;5.72;;;;;;;19.00;83.86;100196.00;1740755;81;20883;-85
2022/07/22 04:58:37;;;;;;;7.30;6.50;;;;;;;19.07;83.52;100191.71;1741819;81;21209;-85
2022/07/22 05:01:05;;;;;;;7.80;6.47;;;;;;;19.04;83.08;100172.94;1769711;81;20962;-86
2022/07/22 05:03:32;;;;;;;6.97;6.37;;;;;;;19.25;82.54;100199.61;1769960;81;20867;-87
2022/07/22 05:05:59;;;;;;;6.75;6.15;;;;;;;19.31;81.86;100195.50;1769856;81;20863;-86
2022/07/22 05:08:29;;;;;;;7.80;6.85;;;;;;;19.35;81.21;100196.34;1769433;80;20907;-86
2022/07/22 05:10:56;;;;;;;9.80;6.55;;;;;;;19.43;81.17;100192.87;1767829;81;21170;-87
2022/07/22 05:13:23;;;;;;;7.05;6.33;;;;;;;19.57;80.84;100191.45;1729959;83;21348;-85
2022/07/22 05:15:50;;;;;;;6.42;5.92;;;;;;;19.93;80.42;100200.56;1734190;83;20944;-87
2022/07/22 05:18:17;;;;;;;6.33;5.65;;;;;;;20.39;78.82;100202.30;1729808;83;20959;-85
2022/07/22 05:20:44;;;;;;;6.08;5.00;;;;;;;20.80;76.35;100201.78;1729885;83;20870;-86
2022/07/22 05:23:12;;;;;;;6.10;4.60;;;;;;;21.06;74.25;100206.91;1733841;83;21250;-85
2022/07/22 05:25:38;;;;;;;4.50;4.20;;;;;;;21.41;73.54;100208.83;1728165;83;20919;-88
2022/07/22 05:28:05;;;;;;;4.03;3.72;;;;;;;21.64;69.12;100210.73;1698877;82;21052;-86
2022/07/22 05:30:34;;;;;;;4.83;4.08;;;;;;;21.85;67.39;100204.27;1731887;83;20951;-88
2022/07/22 05:33:02;;;;;;;3.58;3.37;;;;;;;22.17;65.80;100215.77;1728380;83;20876;-86
2022/07/22 05:35:40;;;;;;;4.58;3.60;;;;;;;22.54;63.40;100219.50;1713478;83;21332;-87
2022/07/22 05:38:06;;;;;;;4.58;3.35;;;;;;;22.96;61.59;100217.61;1732723;83;20999;-89
2022/07/22 05:40:33;;;;;;;4.33;3.92;;;;;;;23.45;60.77;100214.92;1728647;83;20848;-90
2022/07/22 05:43:01;;;;;;;3.55;3.10;;;;;;;23.89;59.45;100215.38;1699092;84;20932;-90
2022/07/22 05:45:28;;;;;;;3.75;3.55;;;;;;;24.29;58.65;100206.41;1732017;83;20864;-90
2022/07/22 05:47:55;;;;;;;4.62;2.92;;;;;;;24.57;57.44;100205.16;1728537;83;21147;-90
2022/07/22 05:50:22;;;;;;;4.05;3.67;;;;;;;24.96;55.91;100204.30;1699171;84;20901;-92
2022/07/22 05:52:49;;;;;;;3.52;3.15;;;;;;;25.36;55.29;100204.55;1733108;83;20908;-90
2022/07/22 05:55:16;;;;;;;3.20;3.00;;;;;;;25.77;53.54;100196.47;1727686;83;21018;-91
2022/07/22 05:57:43;;;;;;;3.37;3.12;;;;;;;26.05;52.34;100198.20;1698776;84;20882;-92
2022/07/22 06:00:10;;;;;;;5.55;4.90;;;;;;;26.43;52.33;100201.13;1731714;83;21261;-92
2022/07/22 06:02:43;;;;;;;5.67;4.65;;;;;;;26.52;51.74;100197.72;1728453;83;20863;-90
2022/07/22 06:05:13;;;;;;;3.65;3.35;;;;;;;26.40;51.64;100200.73;1701264;83;20909;-90
2022/07/22 06:07:40;;;;;;;3.45;3.15;;;;;;;26.18;51.87;100204.13;1733113;83;20947;-92
2022/07/22 06:10:08;;;;;;;4.40;3.90;;;;;;;25.95;52.68;100199.95;1728221;81;20959;-88
2022/07/22 06:12:35;;;;;;;6.60;4.00;;;;;;;25.65;53.35;100203.44;1732735;83;21102;-89
2022/07/22 06:15:04;;;;;;;3.58;3.37;;;;;;;25.38;53.65;100203.84;1697945;83;21035;-90
2022/07/22 06:17:32;;;;;;;3.90;3.17;;;;;;;25.18;54.72;100208.55;1698671;83;20914;-90
2022/07/22 06:20:00;;;;;;;4.47;3.87;;;;;;;25.05;55.08;100204.97;1732804;83;20944;-91
2022/07/22 06:22:27;;;;;;;6.35;5.72;;;;;;;25.22;55.66;100207.69;1728589;83;20935;-92
2022/07/22 06:24:55;;;;;;;4.62;3.92;;;;;;;25.65;55.36;100206.94;1732706;83;21329;-91
2022/07/22 06:27:23;;;;;;;5.78;5.33;;;;;;;26.23;54.10;100201.64;1727733;82;20916;-91
2022/07/22 06:29:50;;;;;;;16.48;14.80;;;;;;;26.70;52.35;100205.19;1733356;83;20968;-89
2022/07/22 06:32:16;;;;;;;3.72;3.47;;;;;;;27.04;50.67;100206.00;1729759;80;20986;-88
2022/07/22 06:34:43;;;;;;;3.60;3.22;;;;;;;27.06;50.00;100206.63;1699579;83;20846;-92
2022/07/22 06:37:10;;;;;;;2.80;2.50;;;;;;;26.94;49.79;100210.97;1733716;83;21236;-90
2022/07/22 06:39:38;;;;;;;2.65;2.55;;;;;;;26.71;49.76;100210.91;1728335;83;20987;-89
2022/07/22 06:42:15;;;;;;;2.80;2.33;;;;;;;26.53;49.77;100209.33;1727330;83;20955;-91
2022/07/22 06:44:47;;;;;;;2.00;1.90;;;;;;;26.51;50.23;100210.05;1703390;82;20926;-89
2022/07/22 06:47:15;;;;;;;2.65;2.10;;;;;;;26.63;50.10;100213.80;1698584;83;20985;-91
2022/07/22 06:49:42;;;;;;;2.08;1.98;;;;;;;26.91;50.54;100214.92;1729242;83;21200;-93
2022/07/22 06:52:09;;;;;;;2.35;1.72;;;;;;;27.12;49.96;100209.79;1699148;84;21431;-92
2022/07/22 06:54:37;;;;;;;2.30;2.20;;;;;;;27.24;48.71;100209.50;1698768;84;20921;-92
2022/07/22 06:57:04;;;;;;;2.17;1.90;;;;;;;27.14;48.26;100211.75;1728022;83;20903;-92
2022/07/22 06:59:33;;;;;;;8.95;2.50;;;;;;;26.99;47.92;100213.86;1698943;84;20870;-91
2022/07/22 07:02:00;;;;;;;4.30;2.00;;;;;;;27.03;48.24;100211.88;1727860;83;21223;-92
2022/07/22 07:04:27;;;;;;;1.98;1.87;;;;;;;27.15;48.33;100209.91;1731941;83;20932;-93
2022/07/22 07:06:53;;;;;;;2.65;2.25;;;;;;;27.57;48.31;100210.40;1728036;83;20994;-91
2022/07/22 07:09:25;;;;;;;2.45;2.35;;;;;;;27.68;47.51;100220.00;1725312;83;20943;-92
2022/07/22 07:11:58;;;;;;;;;;;;;;;27.78;47.29;100217.36;1729844;82;20982;-91
2022/07/22 07:14:26;;;;;;;2.83;2.20;;;;;;;27.56;47.24;100221.70;1727254;82;21160;-93
2022/07/22 07:16:53;;;;;;;8.00;3.75;;;;;;;27.33;47.60;100226.25;1728492;83;20864;-92
2022/07/22 07:19:21;;;;;;;3.50;2.05;;;;;;;27.17;47.65;100219.43;1698859;84;20925;-92
2022/07/22 07:21:48;;;;;;;2.30;1.87;;;;;;;27.07;47.98;100224.41;1732297;83;20995;-90
2022/07/22 07:24:15;;;;;;;2.65;1.85;;;;;;;26.79;48.02;100224.64;1697629;83;20883;-90
2022/07/22 07:26:42;;;;;;;1.98;1.87;;;;;;;26.55;48.39;100222.06;1733677;83;21136;-89
2022/07/22 07:29:08;;;;;;;14.55;13.15;;;;;;;26.37;49.01;100223.49;1728725;83;20899;-90
2022/07/22 07:31:36;;;;;;;5.03;4.53;;;;;;;26.29;49.94;100216.14;1698602;84;20889;-90
2022/07/22 07:34:06;;;;;;;2.55;2.35;;;;;;;26.56;49.42;100212.97;1731749;83;20943;-91
2022/07/22 07:36:34;;;;;;;2.55;1.60;;;;;;;26.87;49.16;100221.22;1728385;83;20888;-91
2022/07/22 07:39:00;;;;;;;1.65;1.50;;;;;;;27.01;47.06;100216.67;1728032;83;21150;-91
2022/07/22 07:41:29;;;;;;;1.50;1.40;;;;;;;26.95;46.62;100222.89;1668121;84;20929;-92
2022/07/22 07:46:01;;;;;;;2.27;1.45;;;;;;;27.15;47.45;100212.61;1885139;75;22417;-91
2022/07/22 07:48:28;;;;;;;2.40;2.22;;;;;;;27.19;46.56;100219.20;1861992;77;21451;-92
2022/07/22 07:50:55;;;;;;;1.40;1.40;;;;;;;27.13;47.20;100229.48;1861869;76;21186;-93
2022/07/22 07:53:21;;;;;;;1.92;1.82;;;;;;;27.37;47.10;100229.33;1861843;77;20848;-92
2022/07/22 07:55:48;;;;;;;4.03;1.95;;;;;;;27.69;46.30;100229.73;1861678;76;20935;-92
2022/07/22 07:58:16;;;;;;;1.90;1.50;;;;;;;28.05;46.02;100224.80;1831257;77;20947;-92
2022/07/22 08:00:43;;;;;;;2.27;1.62;;;;;;;28.28;45.51;100230.97;1861519;77;20946;-92
2022/07/22 08:03:12;;;;;;;2.30;2.10;;;;;;;28.31;44.54;100231.91;1861921;76;21858;-86
2022/07/22 08:05:39;;;;;;;1.82;1.72;;;;;;;28.21;44.33;100236.41;1864483;77;20891;-89
2022/07/22 08:08:07;;;;;;;3.27;1.87;;;;;;;28.08;45.04;100238.69;1863946;76;21051;-89
2022/07/22 08:10:35;;;;;;;1.70;1.60;;;;;;;28.05;44.87;100243.68;1864198;77;20890;-90
2022/07/22 08:13:16;;;;;;;2.87;1.70;;;;;;;27.90;44.78;100242.61;1864193;77;20926;-91
2022/07/22 08:15:45;;;;;;;1.85;1.60;;;;;;;27.66;45.53;100249.03;1862812;77;21080;-89
2022/07/22 08:18:17;;;;;;;2.00;1.90;;;;;;;27.54;46.19;100245.86;1864007;77;20850;-89
2022/07/22 08:20:43;;;;;;;1.70;1.30;;;;;;;27.52;46.59;100250.10;1864032;76;20891;-90
2022/07/22 08:23:12;;;;;;;1.32;1.32;;;;;;;27.58;46.64;100245.74;1864763;77;20895;-90
2022/07/22 08:25:40;;;;;;;2.62;2.08;;;;;;;27.67;46.12;100242.58;1864099;77;20910;-88
2022/07/22 08:28:07;;;;;;;13.88;12.45;;;;;;;27.68;45.96;100244.25;1864293;77;21183;-87
2022/07/22 08:30:34;;;;;;;9.78;2.60;;;;;;;27.62;45.56;100245.62;1864316;77;21073;-89
2022/07/22 08:33:01;;;;;;;2.58;1.82;;;;;;;27.59;45.31;100247.38;1864409;77;20860;-86
2022/07/22 08:35:27;;;;;;;2.35;1.70;;;;;;;27.68;45.92;100252.34;1832053;77;20899;-91
2022/07/22 08:37:54;;;;;;;2.67;1.60;;;;;;;27.99;45.77;100249.43;1861976;77;20919;-90
2022/07/22 08:40:21;;;;;;;3.22;1.42;;;;;;;28.47;44.51;100235.44;1861941;77;21364;-93
2022/07/22 08:42:49;;;;;;;2.72;2.00;;;;;;;29.00;43.31;100242.25;1862030;77;21293;-93
2022/07/22 08:45:17;;;;;;;1.77;1.67;;;;;;;29.36;43.19;100242.54;1847941;76;20950;-91
2022/07/22 08:47:47;;;;;;;1.45;1.30;;;;;;;29.38;42.13;100249.36;1836868;77;20864;-90
2022/07/22 08:50:25;;;;;;;5.58;3.87;;;;;;;29.33;41.38;100245.17;1812617;78;20907;-91
2022/07/22 08:53:00;;;;;;;2.62;1.57;;;;;;;29.35;42.11;100243.08;1836807;77;21244;-90
2022/07/22 08:55:27;;;;;;;1.57;1.42;;;;;;;29.45;41.61;100235.78;1836605;77;20863;-91
2022/07/22 08:57:53;;;;;;;2.37;1.65;;;;;;;29.67;41.63;100241.55;1836139;77;20938;-93
2022/07/22 09:00:23;;;;;;;2.98;1.25;;;;;;;29.99;41.27;100238.65;1835988;77;20910;-91
2022/07/22 09:02:50;;;;;;;1.07;1.07;;;;;;;30.24;40.77;100244.74;1835890;77;20878;-90
2022/07/22 09:05:17;;;;;;;1.10;1.10;;;;;;;30.57;39.75;100251.02;1835504;76;21131;-90
2022/07/22 09:07:46;;;;;;;3.05;1.40;;;;;;;30.88;39.30;100246.38;1835720;77;20918;-91
2022/07/22 09:10:35;;;;;;;3.40;1.10;;;;;;;31.21;39.52;100253.58;1835253;77;20922;-93
2022/07/22 09:13:12;;;;;;;1.57;1.35;;;;;;;31.50;38.62;100241.77;1835838;76;20863;-91
2022/07/22 09:15:54;;;;;;;2.37;1.55;;;;;;;31.73;37.05;100250.38;1834687;78;20981;-92
2022/07/22 09:18:52;;;;;;;1.67;1.10;;;;;;;31.69;36.75;100241.62;1836518;77;21155;-90
2022/07/22 09:21:41;;;;;;;1.65;1.55;;;;;;;31.34;37.33;100251.44;1835792;77;21388;-91
2022/07/22 09:24:27;;;;;;;2.98;1.60;;;;;;;30.74;38.75;100249.78;1834656;77;20873;-91
2022/07/22 09:26:55;;;;;;;1.75;1.10;;;;;;;30.51;38.72;100244.36;1832680;77;20934;-93
2022/07/22 09:29:30;;;;;;;0.93;0.93;;;;;;;30.48;38.58;100247.02;1835566;77;20819;-91
2022/07/22 09:32:04;;;;;;;2.27;1.70;;;;;;;30.31;38.86;100251.44;1834670;77;21232;-91
2022/07/22 09:34:34;;;;;;;2.42;1.42;;;;;;;30.34;38.88;100256.38;1793980;78;21029;-92
2022/07/22 09:37:02;;;;;;;2.22;1.80;;;;;;;30.12;39.46;100254.69;1833313;77;21369;-93
2022/07/22 09:39:32;;;;;;;2.20;1.37;;;;;;;29.96;39.78;100259.69;1837665;76;21337;-92
2022/07/22 09:42:07;;;;;;;2.45;1.80;;;;;;;29.93;39.73;100257.45;1837463;77;20915;-91
2022/07/22 09:44:35;;;;;;;2.85;1.87;;;;;;;30.00;39.35;100258.71;1838899;77;21238;-91
2022/07/22 09:47:04;;;;;;;11.10;1.92;;;;;;;30.26;38.97;100251.25;1848968;77;20944;-92
2022/07/22 09:49:39;;;;;;;1.80;1.70;;;;;;;30.64;38.58;100251.42;1790320;79;21424;-92
2022/07/22 09:52:24;;;;;;;3.17;1.25;;;;;;;31.01;37.62;100244.47;1790365;79;20950;-92
2022/07/22 09:55:08;;;;;;;3.72;1.20;;;;;;;31.23;37.37;100249.57;1789561;80;21402;-93
2022/07/22 09:57:37;;;;;;;1.00;1.00;;;;;;;31.33;37.71;100255.77;1790541;80;21708;-91
2022/07/22 10:00:08;;;;;;;1.37;1.20;;;;;;;31.45;36.73;100252.52;1790548;79;21451;-89
2022/07/22 10:02:56;;;;;;;4.45;1.62;;;;;;;31.47;37.10;100250.39;1766339;79;20883;-89
2022/07/22 10:05:27;;;;;;;3.92;1.52;;;;;;;31.50;37.60;100247.73;1790860;80;21714;-90
2022/07/22 10:07:55;;;;;;;2.50;1.40;;;;;;;31.38;37.04;100255.32;1735544;79;20904;-91
2022/07/22 10:10:26;;;;;;;2.70;1.60;;;;;;;31.02;37.65;100253.73;1790157;80;21216;-91
2022/07/22 10:12:56;;;;;;;1.45;1.32;;;;;;;30.57;38.47;100251.02;1791003;80;21468;-91
2022/07/22 10:15:25;;;;;;;2.08;1.17;;;;;;;30.18;39.42;100256.48;1791914;80;20883;-90
2022/07/22 10:17:59;;;;;;;1.22;1.12;;;;;;;29.86;39.30;100254.02;1791155;80;20987;-91
2022/07/22 10:20:28;;;;;;;5.15;1.82;;;;;;;29.55;40.21;100250.95;1790388;79;20955;-92
2022/07/22 10:23:01;;;;;;;2.08;0.90;;;;;;;29.34;40.08;100260.31;1790091;79;21173;-90
2022/07/22 10:25:35;;;;;;;2.65;1.20;;;;;;;29.29;39.96;100263.69;1789945;79;21373;-93
2022/07/22 10:28:07;;;;;;;2.15;1.20;;;;;;;29.26;40.42;100245.74;1839422;77;20870;-90
2022/07/22 10:30:40;;;;;;;1.25;1.15;;;;;;;29.27;39.70;100259.03;1849772;77;20952;-90
2022/07/22 10:33:20;;;;;;;1.85;1.00;;;;;;;29.37;39.83;100252.28;1849788;76;21015;-90
2022/07/22 10:36:00;;;;;;;1.17;1.07;;;;;;;29.44;39.81;100253.87;1849181;76;21145;-90
2022/07/22 10:38:35;;;;;;;1.05;0.98;;;;;;;29.64;39.52;100256.34;1849856;77;20918;-91
2022/07/22 10:41:10;;;;;;;1.30;0.95;;;;;;;29.78;39.66;100246.74;1849798;77;20902;-89
2022/07/22 10:43:48;;;;;;;3.35;0.95;;;;;;;29.97;39.44;100248.36;1824520;77;21043;-89
2022/07/22 10:46:16;;;;;;;0.88;0.88;;;;;;;30.33;38.89;100240.68;1838895;76;20930;-88
2022/07/22 10:48:47;;;;;;;1.35;0.90;;;;;;;30.67;38.46;100245.02;1835913;77;21278;-90
2022/07/22 10:51:26;;;;;;;1.80;0.80;;;;;;;30.97;37.49;100254.94;1807595;77;21527;-90
2022/07/22 10:53:56;;;;;;;3.25;0.90;;;;;;;31.28;36.36;100255.13;1805852;78;20906;-89
2022/07/22 10:56:35;;;;;;;3.20;1.87;;;;;;;31.44;36.07;100255.45;1807596;77;20997;-89
2022/07/22 10:59:16;;;;;;;3.00;2.80;;;;;;;31.48;35.88;100257.47;1770097;79;20835;-88
2022/07/22 11:01:58;;;;;;;2.37;1.10;;;;;;;31.47;35.53;100252.28;1769946;79;21018;-89
2022/07/22 11:04:29;;;;;;;2.50;2.30;;;;;;;31.25;35.29;100261.00;1745890;81;20942;-90
2022/07/22 11:07:05;;;;;;;;;;;;;;;31.02;35.50;100257.79;1740418;81;20906;-89
2022/07/22 11:09:40;;;;;;;1.45;1.20;;;;;;;30.66;35.52;100265.55;1762567;80;20074;-90
2022/07/22 11:12:15;;;;;;;1.00;1.00;;;;;;;30.25;36.33;100282.08;1762362;80;20855;-90
2022/07/22 11:14:48;;;;;;;3.15;1.90;;;;;;;30.04;36.86;100276.13;1677104;84;21596;-89
2022/07/22 11:17:23;;;;;;;2.15;1.85;;;;;;;29.99;37.20;100267.05;1702728;84;21358;-88
2022/07/22 11:19:51;;;;;;;1.82;1.32;;;;;;;30.10;37.10;100265.76;1702634;84;20908;-89
2022/07/22 11:22:21;;;;;;;1.07;1.07;;;;;;;30.12;37.22;100266.33;1705454;80;20948;-90
2022/07/22 11:24:52;;;;;;;3.55;1.20;;;;;;;30.02;37.29;100271.48;1778726;80;20903;-89
2022/07/22 11:27:25;;;;;;;145.65;132.15;;;;;;;29.82;37.29;100273.09;1765012;80;21325;-89
2022/07/22 11:29:53;;;;;;;8.35;4.95;;;;;;;29.52;37.88;100262.19;1814006;79;21346;-88
2022/07/22 11:32:30;;;;;;;7.58;6.83;;;;;;;29.25;38.85;100270.59;1795732;78;20831;-89
2022/07/22 11:34:59;;;;;;;1.80;1.45;;;;;;;28.98;39.69;100274.05;1813301;78;20920;-92